createdAt,value
2023-10-03T00:00:29.772Z,101006.88
2023-10-03T00:02:57.292Z,100997.44
2023-10-03T00:05:25.580Z,100984.91
2023-10-03T00:07:53.150Z,100988.47
2023-10-03T00:10:20.185Z,100984.13
2023-10-03T00:12:49.609Z,100973.91
2023-10-03T00:15:25.992Z,100967.63
2023-10-03T00:17:54.869Z,100966.06
2023-10-03T00:20:23.663Z,100962.53
2023-10-03T00:22:52.005Z,100958.25
2023-10-03T00:25:19.527Z,100950.00
2023-10-03T00:27:50.824Z,100954.72
2023-10-03T00:30:20.492Z,100951.19
2023-10-03T00:32:48.041Z,100944.88
2023-10-03T00:35:16.222Z,100932.34
2023-10-03T00:37:47.763Z,100937.47
2023-10-03T00:40:23.773Z,100931.56
2023-10-03T00:42:51.725Z,100923.75
2023-10-03T00:45:26.128Z,100920.63
2023-10-03T00:47:56.952Z,100911.97
2023-10-03T00:50:26.412Z,100910.41
2023-10-03T00:53:01.914Z,100902.56
2023-10-03T00:55:34.158Z,100887.66
2023-10-03T00:58:23.409Z,100890.03
2023-10-03T01:00:58.483Z,100878.66
2023-10-03T01:03:39.743Z,100874.72
2023-10-03T01:06:11.989Z,100877.09
2023-10-03T01:08:41.370Z,100864.56
2023-10-03T01:11:14.472Z,100860.63
2023-10-03T01:13:41.072Z,100854.75
2023-10-03T01:16:08.172Z,100851.19
2023-10-03T01:18:39.491Z,100846.50
2023-10-03T01:21:07.567Z,100839.84
2023-10-03T01:23:37.129Z,100829.63
2023-10-03T01:26:05.135Z,100821.78
2023-10-03T01:28:31.974Z,100830.00
2023-10-03T01:30:58.742Z,100823.72
2023-10-03T01:33:29.656Z,100828.03
2023-10-03T01:35:57.394Z,100815.88
2023-10-03T01:38:24.234Z,100812.75
2023-10-03T01:40:53.183Z,100806.84
2023-10-03T01:43:20.391Z,100806.06
2023-10-03T01:45:47.053Z,100786.84
2023-10-03T01:48:13.722Z,100788.03
2023-10-03T01:50:40.431Z,100778.63
2023-10-03T01:53:07.194Z,100773.56
2023-10-03T01:55:34.957Z,100784.94
2023-10-03T01:58:01.818Z,100784.56
2023-10-03T02:00:28.412Z,100784.16
2023-10-03T02:02:57.633Z,100774.34
2023-10-03T02:05:28.158Z,100768.47
2023-10-03T02:08:14.140Z,100777.50
2023-10-03T02:10:41.259Z,100769.63
2023-10-03T02:13:15.884Z,100772.38
2023-10-03T02:15:44.218Z,100767.69
2023-10-03T02:18:15.226Z,100763.75
2023-10-03T02:20:52.961Z,100753.56
2023-10-03T02:23:25.696Z,100742.16
2023-10-03T02:25:57.422Z,100753.94
2023-10-03T02:28:27.842Z,100744.53
2023-10-03T02:30:57.051Z,100754.34
2023-10-03T02:33:24.446Z,100726.09
2023-10-03T02:35:52.148Z,100731.97
2023-10-03T02:38:26.006Z,100749.22
2023-10-03T02:40:58.602Z,100755.09
2023-10-03T02:43:27.482Z,100751.09
2023-10-03T02:45:54.136Z,100751.09
2023-10-03T02:48:22.755Z,100758.97
2023-10-03T02:50:51.575Z,100749.94
2023-10-03T02:53:20.657Z,100735.00
2023-10-03T02:55:51.460Z,100735.38
2023-10-03T02:58:20.990Z,100742.81
2023-10-03T03:00:54.913Z,100732.19
2023-10-03T03:03:24.557Z,100729.00
2023-10-03T03:05:51.939Z,100726.25
2023-10-03T03:08:21.460Z,100718.34
2023-10-03T03:10:58.827Z,100717.16
2023-10-03T03:13:27.369Z,100709.69
2023-10-03T03:16:01.766Z,100711.56
2023-10-03T03:18:33.232Z,100704.50
2023-10-03T03:21:02.347Z,100708.00
2023-10-03T03:23:32.346Z,100703.31
2023-10-03T03:26:18.395Z,100714.72
2023-10-03T03:28:48.018Z,100707.66
2023-10-03T03:31:23.989Z,100710.00
2023-10-03T03:33:53.067Z,100706.84
2023-10-03T03:36:23.228Z,100711.09
2023-10-03T03:38:53.407Z,100708.41
2023-10-03T03:41:20.269Z,100713.50
2023-10-03T03:43:49.191Z,100713.50
2023-10-03T03:46:16.846Z,100726.88
2023-10-03T03:48:43.484Z,100717.00
2023-10-03T03:51:12.769Z,100718.97
2023-10-03T03:53:39.977Z,100725.63
2023-10-03T03:56:08.644Z,100729.16
2023-10-03T03:58:38.328Z,100716.56
2023-10-03T04:01:24.428Z,100732.31
2023-10-03T04:03:51.979Z,100742.84
2023-10-03T04:06:21.961Z,100745.97
2023-10-03T04:09:04.701Z,100750.25
2023-10-03T04:11:34.901Z,100753.34
2023-10-03T04:14:05.302Z,100782.03
2023-10-03T04:16:39.269Z,100767.47
2023-10-03T04:19:07.140Z,100767.88
2023-10-03T04:21:34.271Z,100763.56
2023-10-03T04:24:01.130Z,100771.84
2023-10-03T04:26:28.715Z,100782.84
2023-10-03T04:28:55.271Z,100789.59
2023-10-03T04:31:21.838Z,100817.09
2023-10-03T04:33:48.416Z,100803.00
2023-10-03T04:36:16.372Z,100791.66
2023-10-03T04:38:43.929Z,100790.13
2023-10-03T04:41:11.007Z,100787.41
2023-10-03T04:43:37.877Z,100789.78
2023-10-03T04:46:05.870Z,100796.09
2023-10-03T04:48:32.721Z,100791.75
2023-10-03T04:51:00.602Z,100790.59
2023-10-03T04:53:27.417Z,100794.53
2023-10-03T04:55:54.151Z,100798.50
2023-10-03T04:58:23.388Z,100802.41
2023-10-03T05:00:50.649Z,100796.19
2023-10-03T05:03:20.401Z,100786.38
2023-10-03T05:05:50.081Z,100783.69
2023-10-03T05:08:19.713Z,100784.06
2023-10-03T05:10:48.184Z,100788.78
2023-10-03T05:13:14.766Z,100795.50
2023-10-03T05:15:42.208Z,100801.41
2023-10-03T05:18:08.975Z,100795.91
2023-10-03T05:20:42.151Z,100804.53
2023-10-03T05:23:09.107Z,100810.84
2023-10-03T05:25:42.602Z,100812.81
2023-10-03T05:28:12.397Z,100815.53
2023-10-03T05:30:42.402Z,100813.56
2023-10-03T05:33:09.799Z,100824.16
2023-10-03T05:35:37.212Z,100810.03
2023-10-03T05:38:10.856Z,100810.84
2023-10-03T05:40:37.806Z,100824.16
2023-10-03T05:43:06.537Z,100812.00
2023-10-03T05:45:36.164Z,100818.66
2023-10-03T05:48:06.201Z,100840.25
2023-10-03T05:50:34.393Z,100829.66
2023-10-03T05:53:01.571Z,100853.19
2023-10-03T05:55:28.144Z,100855.91
2023-10-03T05:57:54.777Z,100853.94
2023-10-03T06:00:22.566Z,100839.03
2023-10-03T06:02:49.679Z,100847.25
2023-10-03T06:05:17.356Z,100844.53
2023-10-03T06:07:45.020Z,100858.25
2023-10-03T06:10:12.252Z,100851.19
2023-10-03T06:12:39.218Z,100852.38
2023-10-03T06:15:07.906Z,100846.88
2023-10-03T06:17:37.610Z,100857.06
2023-10-03T06:20:07.189Z,100870.03
2023-10-03T06:22:36.541Z,100849.63
2023-10-03T06:25:03.040Z,100865.69
2023-10-03T06:27:30.838Z,100859.41
2023-10-03T06:29:57.469Z,100873.53
2023-10-03T06:32:24.112Z,100861.00
2023-10-03T06:34:51.279Z,100875.50
2023-10-03T06:37:17.897Z,100879.44
2023-10-03T06:39:44.652Z,100881.75
2023-10-03T06:42:11.574Z,100887.25
2023-10-03T06:44:38.348Z,100894.72
2023-10-03T06:47:05.572Z,100898.63
2023-10-03T06:49:32.269Z,100909.25
2023-10-03T06:52:01.923Z,100917.50
2023-10-03T06:54:28.951Z,100921.38
2023-10-03T06:56:55.627Z,100915.94
2023-10-03T06:59:22.350Z,100919.47
2023-10-03T07:01:48.903Z,100912.38
2023-10-03T07:04:15.653Z,100922.97
2023-10-03T07:06:42.475Z,100940.22
2023-10-03T07:09:12.099Z,100939.06
2023-10-03T07:11:39.160Z,100952.78
2023-10-03T07:14:05.693Z,100954.75
2023-10-03T07:16:42.451Z,100969.66
2023-10-03T07:19:11.792Z,100976.69
2023-10-03T07:21:38.873Z,100968.84
2023-10-03T07:24:06.066Z,100968.06
2023-10-03T07:26:33.388Z,100981.78
2023-10-03T07:29:02.589Z,100967.69
2023-10-03T07:31:30.604Z,100967.28
2023-10-03T07:33:57.943Z,100960.63
2023-10-03T07:36:24.693Z,100973.16
2023-10-03T07:38:51.215Z,100966.91
2023-10-03T07:41:19.668Z,100957.88
2023-10-03T07:43:49.719Z,100963.78
2023-10-03T07:46:24.053Z,100983.34
2023-10-03T07:49:00.853Z,100987.25
2023-10-03T07:51:27.951Z,100997.06
2023-10-03T07:53:56.760Z,101000.22
2023-10-03T07:56:35.097Z,101010.41
2023-10-03T07:59:03.786Z,101017.06
2023-10-03T08:01:44.617Z,101025.66
2023-10-03T08:04:19.851Z,101033.91
2023-10-03T08:06:46.529Z,101043.69
2023-10-03T08:09:14.982Z,101060.94
2023-10-03T08:11:41.909Z,101048.34
2023-10-03T08:14:14.601Z,101061.25
2023-10-03T08:16:42.533Z,101065.53
2023-10-03T08:19:10.181Z,101085.88
2023-10-03T08:21:36.986Z,101083.13
2023-10-03T08:24:10.865Z,101089.75
2023-10-03T08:26:44.214Z,101085.03
2023-10-03T08:29:10.755Z,101101.09
2023-10-03T08:31:40.203Z,101121.88
2023-10-03T08:34:11.884Z,101130.47
2023-10-03T08:36:39.204Z,101130.06
2023-10-03T08:39:06.808Z,101130.81
2023-10-03T08:41:47.119Z,101141.00
2023-10-03T08:44:14.458Z,101170.72
2023-10-03T08:46:56.640Z,101175.00
2023-10-03T08:49:28.583Z,101163.66
2023-10-03T08:52:05.351Z,101168.78
2023-10-03T08:54:38.111Z,101192.28
2023-10-03T08:57:05.910Z,101198.94
2023-10-03T08:59:32.763Z,101194.25
2023-10-03T09:02:06.699Z,101194.28
2023-10-03T09:04:39.326Z,101196.69
2023-10-03T09:07:11.939Z,101191.25
2023-10-03T09:09:43.503Z,101202.63
2023-10-03T09:12:10.175Z,101216.72
2023-10-03T09:14:39.579Z,101226.06
2023-10-03T09:17:09.048Z,101251.91
2023-10-03T09:19:46.012Z,101251.06
2023-10-03T09:22:16.919Z,101260.38
2023-10-03T09:24:47.276Z,101245.09
2023-10-03T09:27:19.180Z,101248.88
2023-10-03T09:29:50.740Z,101260.22
2023-10-03T09:32:20.882Z,101270.81
2023-10-03T09:34:57.826Z,101261.88
2023-10-03T09:37:31.160Z,101264.63
2023-10-03T09:40:02.440Z,101266.19
2023-10-03T09:42:33.382Z,101275.25
2023-10-03T09:45:00.656Z,101301.94
2023-10-03T09:47:34.465Z,101307.00
2023-10-03T09:50:10.124Z,101305.47
2023-10-03T09:52:40.423Z,101324.25
2023-10-03T09:55:23.280Z,101324.59
2023-10-03T09:57:56.733Z,101322.63
2023-10-03T10:00:42.882Z,101325.31
2023-10-03T10:03:13.243Z,101320.63
2023-10-03T10:05:53.286Z,101321.84
2023-10-03T10:08:41.377Z,101319.25
2023-10-03T10:11:11.705Z,101327.56
2023-10-03T10:13:43.625Z,101334.31
2023-10-03T10:16:21.866Z,101336.28
2023-10-03T10:18:53.005Z,101329.28
2023-10-03T10:21:32.433Z,101331.25
2023-10-03T10:24:17.957Z,101343.44
2023-10-03T10:26:53.910Z,101337.91
2023-10-03T10:29:22.394Z,101339.09
2023-10-03T10:31:59.670Z,101350.88
2023-10-03T10:34:30.734Z,101353.63
2023-10-03T10:36:58.239Z,101362.91
2023-10-03T10:40:11.070Z,101367.50
2023-10-03T10:42:57.376Z,101395.53
2023-10-03T10:45:25.137Z,101387.19
2023-10-03T10:47:52.448Z,101401.91
2023-10-03T10:50:22.862Z,101404.66
2023-10-03T10:52:57.717Z,101408.09
2023-10-03T10:55:25.786Z,101422.88
2023-10-03T10:58:23.513Z,101423.25
2023-10-03T11:00:58.486Z,101427.03
2023-10-03T11:03:25.232Z,101432.09
2023-10-03T11:05:52.050Z,101446.47
2023-10-03T11:08:22.954Z,101443.66
2023-10-03T11:10:53.962Z,101436.66
2023-10-03T11:13:24.515Z,101444.50
2023-10-03T11:15:52.602Z,101455.06
2023-10-03T11:18:29.174Z,101459.31
2023-10-03T11:20:59.025Z,101461.53
2023-10-03T11:23:25.796Z,101461.75
2023-10-03T11:25:59.498Z,101461.00
2023-10-03T11:28:29.575Z,101470.63
2023-10-03T11:31:14.831Z,101466.53
2023-10-03T11:33:47.780Z,101475.38
2023-10-03T11:36:15.348Z,101489.16
2023-10-03T11:38:46.223Z,101501.00
2023-10-03T11:41:13.194Z,101498.41
2023-10-03T11:43:50.396Z,101503.81
2023-10-03T11:46:17.249Z,101502.16
2023-10-03T11:48:44.314Z,101514.75
2023-10-03T11:51:11.168Z,101514.75
2023-10-03T11:53:37.758Z,101521.66
2023-10-03T11:56:04.407Z,101528.84
2023-10-03T11:58:31.926Z,101520.50
2023-10-03T12:00:58.591Z,101537.69
2023-10-03T12:03:25.252Z,101538.16
2023-10-03T12:05:57.811Z,101546.09
2023-10-03T12:08:24.942Z,101551.66
2023-10-03T12:10:51.451Z,101557.81
2023-10-03T12:13:18.124Z,101560.69
2023-10-03T12:15:47.120Z,101565.75
2023-10-03T12:18:16.745Z,101582.13
2023-10-03T12:20:45.350Z,101581.28
2023-10-03T12:23:11.982Z,101587.28
2023-10-03T12:25:38.500Z,101593.88
2023-10-03T12:28:05.056Z,101598.47
2023-10-03T12:30:31.529Z,101610.63
2023-10-03T12:32:58.142Z,101614.41
2023-10-03T12:35:24.815Z,101615.81
2023-10-03T12:37:51.326Z,101609.09
2023-10-03T12:40:19.933Z,101623.00
2023-10-03T12:42:48.595Z,101624.09
2023-10-03T12:45:17.614Z,101630.84
2023-10-03T12:47:49.316Z,101632.16
2023-10-03T12:50:16.468Z,101637.88
2023-10-03T12:52:49.157Z,101635.06
2023-10-03T12:55:17.873Z,101651.75
2023-10-03T12:57:47.721Z,101645.03
2023-10-03T13:00:22.179Z,101645.34
2023-10-03T13:02:50.296Z,101652.53
2023-10-03T13:05:22.751Z,101656.84
2023-10-03T13:07:50.936Z,101649.25
2023-10-03T13:10:18.697Z,101664.44
2023-10-03T13:12:46.903Z,101676.59
2023-10-03T13:15:19.224Z,101674.50
2023-10-03T13:17:49.332Z,101688.16
2023-10-03T13:20:19.418Z,101692.47
2023-10-03T13:22:48.494Z,101701.63
2023-10-03T13:25:19.814Z,101731.88
2023-10-03T13:27:48.973Z,101721.59
2023-10-03T13:30:19.823Z,101724.22
2023-10-03T13:32:51.228Z,101730.50
2023-10-03T13:35:21.476Z,101733.69
2023-10-03T13:37:49.463Z,101742.06
2023-10-03T13:40:18.252Z,101741.31
2023-10-03T13:42:45.646Z,101733.88
2023-10-03T13:45:14.528Z,101732.41
2023-10-03T13:47:46.414Z,101745.69
2023-10-03T13:50:13.983Z,101738.53
2023-10-03T13:52:42.255Z,101743.84
2023-10-03T13:55:13.583Z,101743.44
2023-10-03T13:57:47.318Z,101739.78
2023-10-03T14:00:15.203Z,101745.25
2023-10-03T14:02:48.351Z,101752.72
2023-10-03T14:05:15.675Z,101752.69
2023-10-03T14:07:42.323Z,101757.84
2023-10-03T14:10:14.359Z,101767.34
2023-10-03T14:12:41.636Z,101767.97
2023-10-03T14:15:11.391Z,101778.28
2023-10-03T14:17:39.498Z,101772.25
2023-10-03T14:20:11.174Z,101783.97
2023-10-03T14:22:44.362Z,101781.00
2023-10-03T14:25:13.699Z,101778.03
2023-10-03T14:27:42.660Z,101785.13
2023-10-03T14:30:10.365Z,101791.00
2023-10-03T14:32:38.703Z,101800.22
2023-10-03T14:35:08.824Z,101801.59
2023-10-03T14:37:35.936Z,101807.78
2023-10-03T14:40:09.913Z,101812.00
2023-10-03T14:42:37.913Z,101816.50
2023-10-03T14:45:05.769Z,101811.03
2023-10-03T14:47:32.825Z,101797.91
2023-10-03T14:49:59.428Z,101814.91
2023-10-03T14:52:25.977Z,101817.59
2023-10-03T14:54:53.236Z,101818.31
2023-10-03T14:57:19.903Z,101823.84
2023-10-03T14:59:46.522Z,101839.03
2023-10-03T15:02:14.545Z,101838.03
2023-10-03T15:04:43.522Z,101817.66
2023-10-03T15:07:12.239Z,101833.38
2023-10-03T15:09:41.904Z,101834.16
2023-10-03T15:12:08.511Z,101847.38
2023-10-03T15:14:35.267Z,101860.16
2023-10-03T15:17:02.350Z,101859.06
2023-10-03T15:19:28.896Z,101860.88
2023-10-03T15:21:56.917Z,101884.94
2023-10-03T15:24:23.642Z,101872.09
2023-10-03T15:26:50.325Z,101881.13
2023-10-03T15:29:17.429Z,101889.28
2023-10-03T15:31:45.227Z,101881.50
2023-10-03T15:34:12.891Z,101889.88
2023-10-03T15:36:39.732Z,101902.56
2023-10-03T15:39:13.626Z,101896.91
2023-10-03T15:41:40.292Z,101898.41
2023-10-03T15:44:10.922Z,101911.09
2023-10-03T15:46:37.466Z,101909.84
2023-10-03T15:49:04.225Z,101912.22
2023-10-03T15:51:30.931Z,101919.03
2023-10-03T15:53:57.461Z,101917.19
2023-10-03T15:56:24.457Z,101926.28
2023-10-03T15:58:50.998Z,101931.03
2023-10-03T16:01:17.764Z,101922.25
2023-10-03T16:03:46.727Z,101930.81
2023-10-03T16:06:13.932Z,101933.91
2023-10-03T16:08:45.718Z,101937.78
2023-10-03T16:11:12.849Z,101943.25
2023-10-03T16:13:39.531Z,101951.78
2023-10-03T16:16:06.157Z,101954.53
2023-10-03T16:18:34.177Z,101951.34
2023-10-03T16:21:10.959Z,101953.31
2023-10-03T16:23:37.672Z,101956.03
2023-10-03T16:26:04.268Z,101966.25
2023-10-03T16:28:31.495Z,101964.31
2023-10-03T16:30:58.679Z,101956.31
2023-10-03T16:33:25.704Z,101963.38
2023-10-03T16:35:52.440Z,101970.81
2023-10-03T16:38:19.133Z,101982.63
2023-10-03T16:40:46.058Z,101990.22
2023-10-03T16:43:13.301Z,101990.28
2023-10-03T16:45:40.753Z,101987.13
2023-10-03T16:48:09.222Z,101987.97
2023-10-03T16:50:37.195Z,101996.88
2023-10-03T16:53:04.124Z,101999.38
2023-10-03T16:55:30.665Z,102010.53
2023-10-03T16:57:57.388Z,102018.38
2023-10-03T17:00:24.184Z,102010.88
2023-10-03T17:02:51.375Z,102025.59
2023-10-03T17:05:18.033Z,102028.44
2023-10-03T17:07:45.679Z,102025.84
2023-10-03T17:10:16.667Z,102032.31
2023-10-03T17:12:43.380Z,102023.28
2023-10-03T17:15:12.915Z,102032.19
2023-10-03T17:17:42.566Z,102038.44
2023-10-03T17:20:13.104Z,102030.25
2023-10-03T17:22:40.408Z,102037.63
2023-10-03T17:25:07.490Z,102046.03
2023-10-03T17:27:35.767Z,102049.47
2023-10-03T17:30:09.740Z,102047.06
2023-10-03T17:32:36.489Z,102055.72
2023-10-03T17:35:06.587Z,102059.59
2023-10-03T17:37:33.398Z,102060.72
2023-10-03T17:40:00.510Z,102066.28
2023-10-03T17:42:30.340Z,102066.88
2023-10-03T17:44:57.606Z,102070.19
2023-10-03T17:47:24.836Z,102078.59
2023-10-03T17:49:53.471Z,102076.31
2023-10-03T17:52:22.722Z,102084.66
2023-10-03T17:54:49.512Z,102095.22
2023-10-03T17:57:16.224Z,102103.50
2023-10-03T17:59:50.126Z,102103.75
2023-10-03T18:02:19.865Z,102108.19
2023-10-03T18:04:46.644Z,102104.88
2023-10-03T18:07:13.490Z,102113.38
2023-10-03T18:09:40.571Z,102114.72
2023-10-03T18:12:08.182Z,102107.56
2023-10-03T18:14:34.708Z,102107.44
2023-10-03T18:17:03.830Z,102122.22
2023-10-03T18:19:30.701Z,102115.88
2023-10-03T18:21:57.301Z,102131.00
2023-10-03T18:24:23.842Z,102132.09
2023-10-03T18:26:50.555Z,102129.38
2023-10-03T18:29:18.114Z,102130.50
2023-10-03T18:31:44.707Z,102141.31
2023-10-03T18:34:11.283Z,102138.00
2023-10-03T18:36:37.900Z,102138.56
2023-10-03T18:39:04.772Z,102141.47
2023-10-03T18:41:31.412Z,102140.44
2023-10-03T18:43:58.625Z,102147.38
2023-10-03T18:46:25.360Z,102158.38
2023-10-03T18:48:53.353Z,102161.25
2023-10-03T18:51:20.243Z,102164.31
2023-10-03T18:53:48.129Z,102172.81
2023-10-03T18:56:14.823Z,102170.91
2023-10-03T18:58:41.499Z,102179.31
2023-10-03T19:01:48.431Z,102183.69
2023-10-03T19:04:16.329Z,102183.09
2023-10-03T19:06:43.083Z,102182.16
2023-10-03T19:09:13.669Z,102193.41
2023-10-03T19:11:40.777Z,102208.16
2023-10-03T19:14:07.459Z,102215.88
2023-10-03T19:16:35.152Z,102219.47
2023-10-03T19:19:02.176Z,102217.88
2023-10-03T19:21:29.010Z,102218.88
2023-10-03T19:23:58.150Z,102222.84
2023-10-03T19:26:25.077Z,102233.09
2023-10-03T19:28:51.657Z,102240.13
2023-10-03T19:31:20.011Z,102234.03
2023-10-03T19:33:46.804Z,102230.97
2023-10-03T19:36:14.407Z,102237.84
2023-10-03T19:38:42.211Z,102241.03
2023-10-03T19:41:14.122Z,102250.00
2023-10-03T19:43:42.333Z,102256.44
2023-10-03T19:46:15.901Z,102256.78
2023-10-03T19:48:42.530Z,102261.78
2023-10-03T19:51:09.247Z,102258.91
2023-10-03T19:53:36.249Z,102257.16
2023-10-03T19:56:12.697Z,102264.41
2023-10-03T19:58:40.865Z,102262.66
2023-10-03T20:01:10.029Z,102265.06
2023-10-03T20:03:37.229Z,102268.13
2023-10-03T20:06:09.439Z,102261.59
2023-10-03T20:08:36.290Z,102269.63
2023-10-03T20:11:02.917Z,102268.22
2023-10-03T20:13:29.505Z,102272.06
2023-10-03T20:15:56.103Z,102273.81
2023-10-03T20:18:23.318Z,102266.09
2023-10-03T20:20:50.872Z,102267.69
2023-10-03T20:23:17.574Z,102279.69
2023-10-03T20:25:44.065Z,102280.94
2023-10-03T20:28:10.856Z,102282.03
2023-10-03T20:30:38.288Z,102280.25
2023-10-03T20:33:05.710Z,102288.09
2023-10-03T20:35:33.217Z,102283.44
2023-10-03T20:38:00.546Z,102289.22
2023-10-03T20:40:27.233Z,102288.41
2023-10-03T20:42:53.809Z,102279.59
2023-10-03T20:45:20.687Z,102280.84
2023-10-03T20:47:47.318Z,102287.31
2023-10-03T20:50:13.939Z,102286.34
2023-10-03T20:52:40.611Z,102283.34
2023-10-03T20:55:07.974Z,102296.69
2023-10-03T20:57:34.796Z,102290.31
2023-10-03T21:00:04.045Z,102296.09
2023-10-03T21:02:30.988Z,102296.72
2023-10-03T21:04:58.732Z,102293.41
2023-10-03T21:07:25.640Z,102303.50
2023-10-03T21:09:55.152Z,102300.44
2023-10-03T21:12:23.879Z,102306.03
2023-10-03T21:14:50.878Z,102305.72
2023-10-03T21:17:17.583Z,102308.28
2023-10-03T21:19:44.197Z,102306.81
2023-10-03T21:22:10.771Z,102316.31
2023-10-03T21:24:37.268Z,102315.50
2023-10-03T21:27:03.935Z,102309.25
2023-10-03T21:29:32.496Z,102307.31
2023-10-03T21:31:59.477Z,102313.41
2023-10-03T21:34:26.607Z,102320.78
2023-10-03T21:36:55.127Z,102314.75
2023-10-03T21:39:21.793Z,102321.16
2023-10-03T21:41:48.336Z,102320.34
2023-10-03T21:44:14.840Z,102321.16
2023-10-03T21:46:41.340Z,102321.63
2023-10-03T21:49:07.865Z,102318.41
2023-10-03T21:51:34.366Z,102322.53
2023-10-03T21:54:00.966Z,102325.41
2023-10-03T21:56:28.722Z,102328.78
2023-10-03T21:58:55.256Z,102323.69
2023-10-03T22:01:27.297Z,102327.97
2023-10-03T22:03:55.197Z,102320.66
2023-10-03T22:06:22.043Z,102324.53
2023-10-03T22:08:48.700Z,102325.53
2023-10-03T22:11:17.757Z,102328.75
2023-10-03T22:13:44.356Z,102327.34
2023-10-03T22:16:11.366Z,102319.16
2023-10-03T22:18:38.901Z,102323.47
2023-10-03T22:21:05.709Z,102322.22
2023-10-03T22:23:32.442Z,102321.25
2023-10-03T22:25:59.074Z,102311.69
2023-10-03T22:28:25.578Z,102326.44
2023-10-03T22:30:52.173Z,102321.47
2023-10-03T22:33:19.045Z,102329.16
2023-10-03T22:35:45.887Z,102334.91
2023-10-03T22:38:12.467Z,102332.19
2023-10-03T22:40:39.414Z,102341.66
2023-10-03T22:43:08.419Z,102337.34
2023-10-03T22:45:35.913Z,102346.31
2023-10-03T22:48:03.240Z,102347.28
2023-10-03T22:50:30.235Z,102346.16
2023-10-03T22:52:57.000Z,102345.34
2023-10-03T22:55:23.626Z,102350.47
2023-10-03T22:57:50.438Z,102347.28
2023-10-03T23:00:17.236Z,102345.50
2023-10-03T23:02:43.913Z,102343.91
2023-10-03T23:05:11.345Z,102346.13
2023-10-03T23:07:40.657Z,102346.13
2023-10-03T23:10:12.244Z,102347.28
2023-10-03T23:12:43.112Z,102334.78
2023-10-03T23:15:11.070Z,102355.91
2023-10-03T23:17:38.711Z,102363.94
2023-10-03T23:20:08.308Z,102360.75
2023-10-03T23:22:35.029Z,102360.75
2023-10-03T23:25:01.863Z,102363.00
2023-10-03T23:27:28.468Z,102362.22
2023-10-03T23:29:57.210Z,102369.56
2023-10-03T23:32:25.004Z,102365.41
2023-10-03T23:34:54.801Z,102371.66
2023-10-03T23:37:21.535Z,102370.06
2023-10-03T23:39:48.242Z,102375.81
2023-10-03T23:42:15.437Z,102376.63
2023-10-03T23:44:44.319Z,102379.66
2023-10-03T23:47:11.908Z,102374.84
2023-10-03T23:49:38.661Z,102376.47
2023-10-03T23:52:05.292Z,102382.69
2023-10-03T23:54:31.832Z,102386.09
2023-10-03T23:56:58.464Z,102394.09
2023-10-03T23:59:25.045Z,102398.25
